アミルカル・カブラル国際空港の過去48時間の天気

アミルカル・カブラル国際空港 (Sal)

現在時刻: 5/28 02:10 -01 (5/28 03:10 UTC) 以下の時間は現地時間です。

過去48時間のMETAR気象情報
時間 風向 風速(m/s) 視程 気温(℃) 湿度(%) 気圧(hPa) 天気現象
28 02:00 北東 8 10km以上 22 83 1014
28 01:00 北東 7 10km以上 23 78 1015
28 00:00 北東 6 10km以上 23 78 1016
27 23:00 北東 6 10km以上 23 78 1016
27 22:00 北東 8 10km以上 23 78 1016
27 21:00 北東 8 10km以上 23 73 1016
27 20:00 北東 8 10km以上 23 73 1015
27 19:00 北東 8 10km以上 24 74 1015
27 18:00 北東 9 10km以上 24 69 1014
27 17:00 北東 9 10km以上 25 69 1014
27 16:00 北東 9 10km以上 25 69 1014
27 15:00 北東 9 10km以上 25 69 1014
27 14:00 東北東 9 10km以上 26 65 1015
27 13:00 東北東 9 10km以上 25 69 1015
27 12:00 北東 9 10km以上 25 69 1016
27 11:00 東北東 8 10km以上 25 69 1016
27 10:00 東北東 9 10km以上 24 74 1016
27 09:00 北東 9 10km以上 24 74 1016
27 08:00 北東 9 10km以上 23 78 1016
27 07:00 北東 8 10km以上 23 78 1015
27 06:00 北東 8 10km以上 22 83 1015
27 05:00 北東 7 10km以上 22 83 1015
27 04:00 北東 8 10km以上 22 83 1015
27 03:00 北東 7 10km以上 22 83 1015
27 02:00 北東 6 10km以上 22 88 1015
27 01:00 北東 5 10km以上 22 88 1016
27 00:00 北東 6 10km以上 23 83 1017
26 23:00 東北東 5 10km以上 23 83 1017
26 22:00 東北東 6 10km以上 23 83 1017
26 21:00 東北東 6 10km以上 23 83 1017
26 20:00 東北東 7 10km以上 23 83 1016
26 19:00 東北東 7 10km以上 24 74 1015
26 18:00 北東 8 10km以上 24 74 1015
26 17:00 北東 8 10km以上 25 69 1015
26 16:00 北東 9 10km以上 25 69 1015
26 15:00 北東 9 10km以上 26 65 1015
26 14:00 北東 9 10km以上 26 70 1015
26 13:00 北東 8 10km以上 26 70 1015
26 12:00 北東 8 10km以上 25 74 1016
26 11:00 北東 8 10km以上 25 69 1016
26 10:00 北東 8 10km以上 25 69 1016
26 09:00 北東 8 10km以上 24 74 1016
26 08:00 北東 8 10km以上 23 78 1015
26 07:00 北東 6 10km以上 23 78 1015
26 06:00 北東 4 10km以上 22 83 1014
26 05:00 北東 4 10km以上 22 83 1014
26 04:00 北北東 5 10km以上 22 83 1014
26 03:00 北北東 5 10km以上 22 83 1013
GVAC 280300Z 04015KT 9999 SCT013 BKN090 22/19 Q1014 NOSIG
GVAC 280200Z 04013KT 9999 FEW013 BKN080 BKN200 23/19 Q1015 NOSIG
GVAC 280100Z 04012KT 9999 FEW013 BKN200 23/19 Q1016 NOSIG
GVAC 280000Z 04012KT 9999 FEW013 BKN200 23/19 Q1016 NOSIG
GVAC 272300Z 04015KT 9999 FEW013 SCT100 BKN200 23/19 Q1016 NOSIG
GVAC 272200Z 05015KT 9999 FEW013 BKN200 23/18 Q1016 NOSIG
GVAC 272100Z 04015KT 9999 FEW013 SCT200 23/18 Q1015 NOSIG
GVAC 272000Z 04016KT 9999 FEW013 BKN200 24/19 Q1015 NOSIG
GVAC 271900Z 05017KT 9999 FEW013 BKN200 24/18 Q1014 NOSIG
GVAC 271800Z 05018KT 9999 SCT013 BKN200 25/19 Q1014 NOSIG
GVAC 271700Z 05017KT 9999 SCT013 BKN200 25/19 Q1014 NOSIG
GVAC 271600Z 05017KT 9999 SCT013 BKN200 25/19 Q1014 NOSIG
GVAC 271500Z 06017KT 9999 SCT013 BKN200 26/19 Q1015 NOSIG
GVAC 271400Z 06018KT 9999 SCT013 BKN200 25/19 Q1015 NOSIG
GVAC 271300Z 05017KT 9999 SCT013 BKN200 25/19 Q1016 NOSIG
GVAC 271200Z 06016KT 9999 SCT013 BKN200 25/19 Q1016 NOSIG
GVAC 271100Z 06017KT 9999 BKN013 SCT100 BKN200 24/19 Q1016 NOSIG
GVAC 271000Z 05017KT 9999 BKN013 SCT100 BKN200 24/19 Q1016 NOSIG
GVAC 270900Z 05017KT 9999 BKN013 SCT100 BKN200 23/19 Q1016 NOSIG
GVAC 270800Z 05016KT 9999 BKN013 BKN200 23/19 Q1015 NOSIG
GVAC 270700Z 05015KT 9999 BKN013 SCT100 22/19 Q1015 NOSIG
GVAC 270600Z 04013KT 9999 BKN013 SCT100 22/19 Q1015 NOSIG
GVAC 270500Z 04015KT 9999 SCT013 BKN100 22/19 Q1015 NOSIG
GVAC 270400Z 04014KT 9999 BKN013 BKN100 22/19 Q1015 NOSIG
GVAC 270300Z 05012KT 9999 SCT013 BKN100 22/20 Q1015 NOSIG
GVAC 270200Z 05010KT 9999 SCT013 BKN100 22/20 Q1016 NOSIG
GVAC 270100Z 05011KT 9999 SCT013 BKN100 23/20 Q1017 NOSIG
GVAC 270000Z 06010KT 9999 SCT013 BKN100 23/20 Q1017 NOSIG
GVAC 262300Z 06012KT 9999 SCT013 BKN100 23/20 Q1017 NOSIG
GVAC 262200Z 06011KT 9999 BKN013 BKN100 23/20 Q1017 NOSIG
GVAC 262100Z 07013KT 9999 SCT013 BKN100 23/20 Q1016 NOSIG
GVAC 262000Z 06014KT 9999 BKN013 BKN100 24/19 Q1015 NOSIG
GVAC 261900Z 05016KT 9999 BKN013 SCT100 BKN200 24/19 Q1015 NOSIG
GVAC 261800Z 05015KT 9999 SCT013 BKN200 25/19 Q1015 NOSIG
GVAC 261700Z 05017KT 9999 SCT013 BKN200 25/19 Q1015 NOSIG
GVAC 261600Z 05018KT 9999 SCT013 BKN200 26/19 Q1015 NOSIG
GVAC 261500Z 05017KT 9999 FEW013 SCT100 BKN200 26/20 Q1015 NOSIG
GVAC 261400Z 04016KT 9999 FEW013 SCT100 BKN200 26/20 Q1015 NOSIG
GVAC 261300Z 04016KT 9999 FEW013 BKN200 25/20 Q1016 NOSIG
GVAC 261200Z 05016KT 9999 FEW013 BKN200 25/19 Q1016 NOSIG
GVAC 261100Z 05015KT 9999 BKN013 SCT100 BKN200 25/19 Q1016 NOSIG
GVAC 261000Z 05015KT 9999 BKN013 BKN100 24/19 Q1016 NOSIG
GVAC 260900Z 04015KT 9999 SCT013 SCT100 BKN200 23/19 Q1015 NOSIG
GVAC 260800Z 04011KT 9999 SCT013 BKN100 23/19 Q1015 NOSIG
GVAC 260700Z 04008KT 9999 SCT013 SCT100 BKN200 22/19 Q1014 NOSIG
GVAC 260600Z 04008KT 9999 SCT013 SCT100 BKN200 22/19 Q1014 NOSIG
GVAC 260500Z 03009KT 9999 SCT013 SCT100 BKN200 22/19 Q1014 NOSIG
GVAC 260400Z 03009KT 9999 SCT013 SCT100 BKN200 22/19 Q1013 NOSIG